Time;durP1;ratioP1;P1;durP2;ratioP2;P2;SDS_P1;SDS_P2;PMS_P1;PMS_P2;Temp;Humidity;BMP_temperature;BMP_pressure;BME280_temperature;BME280_humidity;BME280_pressure;Samples;Min_cycle;Max_cycle;Signal;HPM_P1;HPM_P2
2020/04/11 00:01:21;;;;;;;9.2;6.8;;;;;;;9.98;61.58789;943.8313;;;;
2020/04/11 00:03:44;;;;;;;10;7.3;;;;;;;9.95;61.73047;943.7255;;;;
2020/04/11 00:06:09;;;;;;;8.6;6.8;;;;;;;10.01;61.47656;943.7921;;;;
2020/04/11 00:08:36;;;;;;;8.3;7.4;;;;;;;9.96;61.58496;943.8008;;;;
2020/04/11 00:11:19;;;;;;;8.7;7.5;;;;;;;9.89;61.79102;943.7921;;;;
2020/04/11 00:13:44;;;;;;;14.5;8.4;;;;;;;9.82;62.08887;943.7198;;;;
2020/04/11 00:16:09;;;;;;;10.4;7.5;;;;;;;9.77;62.34277;943.7789;;;;
2020/04/11 00:18:34;;;;;;;8.2;7.1;;;;;;;9.78;62.28906;943.7648;;;;
2020/04/11 00:21:00;;;;;;;10.5;7.8;;;;;;;9.74;62.54395;943.7512;;;;
2020/04/11 00:23:25;;;;;;;8.9;7.7;;;;;;;9.72;62.75781;943.7682;;;;
2020/04/11 00:25:50;;;;;;;10.4;8.2;;;;;;;9.68;62.79883;943.8256;;;;
2020/04/11 00:28:15;;;;;;;9;7.7;;;;;;;9.66;62.98926;943.8243;;;;
2020/04/11 00:30:40;;;;;;;9.3;8.2;;;;;;;9.65;62.97559;943.7629;;;;
2020/04/11 00:33:06;;;;;;;10.3;8.4;;;;;;;9.65;63.08984;943.7183;;;;
2020/04/11 00:35:31;;;;;;;10.1;8;;;;;;;9.63;63.17773;943.7275;;;;
2020/04/11 00:37:56;;;;;;;9.6;7.7;;;;;;;9.59;63.27539;943.6691;;;;
2020/04/11 00:40:22;;;;;;;11.3;7.7;;;;;;;9.59;63.29785;943.7177;;;;
2020/04/11 00:42:47;;;;;;;10.1;7.7;;;;;;;9.64;63.04297;943.6799;;;;
2020/04/11 00:45:12;;;;;;;9;8.1;;;;;;;9.58;63.30859;943.6943;;;;
2020/04/11 00:47:37;;;;;;;9.5;8;;;;;;;9.64;62.95117;943.6487;;;;
2020/04/11 00:50:02;;;;;;;8.5;7.6;;;;;;;9.67;62.7959;943.6957;;;;
2020/04/11 00:52:27;;;;;;;8.6;7.7;;;;;;;9.59;62.8877;943.7126;;;;
2020/04/11 00:54:53;;;;;;;10.9;8;;;;;;;9.51;63.19531;943.7014;;;;
2020/04/11 00:57:18;;;;;;;9.3;8;;;;;;;9.4;63.64648;943.6892;;;;
2020/04/11 00:59:44;;;;;;;8.3;7.4;;;;;;;9.33;63.7041;943.7361;;;;
2020/04/11 01:02:11;;;;;;;9.1;7.7;;;;;;;9.24;64.13281;943.7205;;;;
2020/04/11 01:04:35;;;;;;;9.7;8;;;;;;;9;65.15625;943.7302;;;;
2020/04/11 01:07:01;;;;;;;9.2;8.3;;;;;;;9.02;65.18164;943.7673;;;;
2020/04/11 01:09:32;;;;;;;14;9.1;;;;;;;9.07;65.00684;943.759;;;;
2020/04/11 01:11:57;;;;;;;10.3;8.2;;;;;;;9.09;64.95215;943.7389;;;;
2020/04/11 01:14:22;;;;;;;9.6;7.8;;;;;;;9.07;64.87012;943.7511;;;;
2020/04/11 01:16:47;;;;;;;8.8;7.9;;;;;;;8.97;65.24316;943.7731;;;;
2020/04/11 01:19:12;;;;;;;9.4;7.8;;;;;;;8.82;65.8457;943.7822;;;;
2020/04/11 01:21:38;;;;;;;8.8;7.9;;;;;;;8.8;65.89941;943.7473;;;;
2020/04/11 01:24:03;;;;;;;9.1;8.2;;;;;;;8.72;66.30762;943.7229;;;;
2020/04/11 01:26:29;;;;;;;9.3;7.8;;;;;;;8.85;65.79395;943.7932;;;;
2020/04/11 01:28:55;;;;;;;8.6;7.7;;;;;;;8.91;65.57324;943.7509;;;;
2020/04/11 01:31:20;;;;;;;9.7;8.1;;;;;;;8.93;65.44238;943.8016;;;;
2020/04/11 01:33:46;;;;;;;9.6;8;;;;;;;8.94;65.4668;943.8003;;;;
2020/04/11 01:36:11;;;;;;;18.3;9.7;;;;;;;8.89;65.70801;943.7687;;;;
2020/04/11 01:38:37;;;;;;;10.1;8;;;;;;;8.89;65.70801;943.7982;;;;
2020/04/11 01:41:01;;;;;;;9.1;8.1;;;;;;;8.78;66.22461;943.7919;;;;
2020/04/11 01:43:26;;;;;;;8.8;7.9;;;;;;;8.89;65.81055;943.8166;;;;
2020/04/11 01:45:52;;;;;;;9.1;7.8;;;;;;;8.92;65.36035;943.7933;;;;
2020/04/11 01:48:18;;;;;;;9;8.1;;;;;;;8.84;65.25781;943.7692;;;;
2020/04/11 01:50:43;;;;;;;10;7.9;;;;;;;8.71;65.88379;943.7608;;;;
2020/04/11 01:53:09;;;;;;;10.1;8.2;;;;;;;8.58;66.41016;943.7644;;;;
2020/04/11 01:55:34;;;;;;;12.4;8.7;;;;;;;8.6;66.36914;943.823;;;;
2020/04/11 01:57:59;;;;;;;9.8;8.4;;;;;;;8.5;66.875;943.7576;;;;
2020/04/11 02:00:24;;;;;;;9.1;8.2;;;;;;;8.51;66.88965;943.8046;;;;
2020/04/11 02:02:50;;;;;;;9.3;8.3;;;;;;;8.52;66.77734;943.8915;;;;
2020/04/11 02:05:14;;;;;;;10;8.6;;;;;;;8.53;66.74414;943.8686;;;;
2020/04/11 02:08:02;;;;;;;11.2;8.5;;;;;;;8.53;66.72266;943.8538;;;;
2020/04/11 02:10:27;;;;;;;11.3;8.6;;;;;;;8.58;66.62793;943.8311;;;;
2020/04/11 02:12:52;;;;;;;11.5;8.4;;;;;;;8.56;66.59082;943.868;;;;
2020/04/11 02:15:17;;;;;;;11.6;8.2;;;;;;;8.56;66.61328;943.8592;;;;
2020/04/11 02:17:42;;;;;;;11.5;9;;;;;;;8.36;67.3877;943.9091;;;;
2020/04/11 02:20:07;;;;;;;10.2;9;;;;;;;8.21;68.1377;943.836;;;;
2020/04/11 02:22:34;;;;;;;10.5;8.7;;;;;;;7.92;69.38379;943.8312;;;;
2020/04/11 02:24:59;;;;;;;9.8;8.8;;;;;;;7.94;69.41113;943.9008;;;;
2020/04/11 02:27:34;;;;;;;9.8;8.8;;;;;;;7.99;69.39551;943.9805;;;;
2020/04/11 02:29:59;;;;;;;11.1;9.3;;;;;;;8.13;68.81641;943.9475;;;;
2020/04/11 02:32:25;;;;;;;10.8;9.2;;;;;;;8.18;68.55176;943.8806;;;;
2020/04/11 02:34:50;;;;;;;9.4;8.4;;;;;;;8.25;68.2002;943.9099;;;;
2020/04/11 02:37:15;;;;;;;9.1;8.2;;;;;;;8.27;67.83984;943.9772;;;;
2020/04/11 02:39:40;;;;;;;9.7;8.7;;;;;;;8.3;67.75293;943.9659;;;;
2020/04/11 02:42:05;;;;;;;10.5;8.4;;;;;;;8.29;67.74023;943.9752;;;;
2020/04/11 02:44:30;;;;;;;10.3;8.7;;;;;;;8.25;67.9502;943.91;;;;
2020/04/11 02:46:56;;;;;;;10.5;8.9;;;;;;;8.25;67.98438;943.991;;;;
2020/04/11 02:49:21;;;;;;;10.5;8.8;;;;;;;8.09;68.74219;943.9297;;;;
2020/04/11 02:51:46;;;;;;;9.6;8.6;;;;;;;7.85;69.70313;943.918;;;;
2020/04/11 02:54:11;;;;;;;10;8.6;;;;;;;7.79;70.05566;943.9796;;;;
2020/04/11 02:56:36;;;;;;;11.4;9;;;;;;;7.87;69.75293;943.9949;;;;
2020/04/11 02:59:01;;;;;;;16.1;11.2;;;;;;;7.92;69.49902;943.9684;;;;
2020/04/11 03:01:51;;;;;;;18.9;12.2;;;;;;;7.99;69.20313;943.9832;;;;
2020/04/11 03:03:52;;;;;;;30.5;18.7;;;;;;;8.04;68.93945;943.9792;;;;
2020/04/11 03:06:17;;;;;;;24;15.7;;;;;;;7.94;69.12793;943.9928;;;;
2020/04/11 03:08:43;;;;;;;19.6;14.5;;;;;;;8.02;69.02539;944.0159;;;;
2020/04/11 03:11:08;;;;;;;13.5;11.3;;;;;;;7.94;69.46777;944.0119;;;;
2020/04/11 03:13:33;;;;;;;14.2;10.9;;;;;;;8;69.125;943.9697;;;;
2020/04/11 03:15:58;;;;;;;13.6;10.4;;;;;;;7.94;69.33008;943.9808;;;;
2020/04/11 03:18:23;;;;;;;10.8;9.5;;;;;;;7.86;69.59082;943.947;;;;
2020/04/11 03:20:49;;;;;;;12.3;9.4;;;;;;;7.76;69.76758;943.9913;;;;
2020/04/11 03:23:14;;;;;;;12.3;9.3;;;;;;;7.83;69.3252;943.9158;;;;
2020/04/11 03:25:39;;;;;;;11.7;9.3;;;;;;;7.81;69.23047;943.9208;;;;
2020/04/11 03:28:05;;;;;;;10.5;9.3;;;;;;;7.61;70.20801;943.9658;;;;
2020/04/11 03:30:30;;;;;;;11;9.9;;;;;;;7.35;71.44531;944.0068;;;;
2020/04/11 03:32:55;;;;;;;10.6;9.4;;;;;;;7.2;72.39453;943.9885;;;;
2020/04/11 03:35:20;;;;;;;11.6;10.1;;;;;;;7.19;72.51953;943.9953;;;;
2020/04/11 03:37:45;;;;;;;12.4;10.1;;;;;;;7.3;72.15234;943.9984;;;;
2020/04/11 03:40:10;;;;;;;11.7;10.2;;;;;;;7.36;71.76563;943.9637;;;;
2020/04/11 03:42:35;;;;;;;11;9.9;;;;;;;7.27;72.21582;944.0396;;;;
2020/04/11 03:45:18;;;;;;;11;9.8;;;;;;;7.3;71.95898;943.9246;;;;
2020/04/11 03:47:44;;;;;;;12.3;10.1;;;;;;;7.37;71.64258;944.0045;;;;
2020/04/11 03:50:09;;;;;;;11.2;10;;;;;;;7.45;71.20313;944.0302;;;;
2020/04/11 03:52:34;;;;;;;11.6;9.5;;;;;;;7.47;71.12695;943.9777;;;;
2020/04/11 03:54:59;;;;;;;10.5;9.3;;;;;;;7.21;72.0459;944.0123;;;;
2020/04/11 03:57:24;;;;;;;14;10.5;;;;;;;7.1;72.75293;944.0251;;;;
2020/04/11 03:59:49;;;;;;;12.5;10.1;;;;;;;7.16;72.51465;943.9945;;;;
2020/04/11 04:02:42;;;;;;;10.9;9.8;;;;;;;7.3;71.8916;943.9913;;;;
2020/04/11 04:05:08;;;;;;;13.5;10.2;;;;;;;7.42;71.28906;943.9381;;;;
2020/04/11 04:07:33;;;;;;;13.1;10.5;;;;;;;7.49;70.98242;943.9736;;;;
2020/04/11 04:09:58;;;;;;;16.1;12.2;;;;;;;7.47;71.00195;944.037;;;;
2020/04/11 04:12:23;;;;;;;57.6;32.7;;;;;;;7.35;71.50195;944.0489;;;;
2020/04/11 04:14:48;;;;;;;29.5;18.8;;;;;;;7.26;72.1123;944.0383;;;;
2020/04/11 04:17:13;;;;;;;29.5;20;;;;;;;7.25;72.03125;944.0468;;;;
2020/04/11 04:19:38;;;;;;;31.2;22.1;;;;;;;7.14;72.54395;943.9669;;;;
2020/04/11 04:22:03;;;;;;;22.7;15.2;;;;;;;7.1;72.93457;944.0853;;;;
2020/04/11 04:24:29;;;;;;;16.5;13.1;;;;;;;7.14;72.85156;944.0391;;;;
2020/04/11 04:26:54;;;;;;;23.1;13.2;;;;;;;7.23;72.44629;943.9796;;;;
2020/04/11 04:29:19;;;;;;;16.3;12.7;;;;;;;7.35;71.93262;944.0505;;;;
2020/04/11 04:31:44;;;;;;;15.9;13;;;;;;;7.31;71.78125;944.0471;;;;
2020/04/11 04:34:09;;;;;;;17.7;13.6;;;;;;;7.18;72.25684;943.9888;;;;
2020/04/11 04:36:34;;;;;;;19.8;13.4;;;;;;;7.17;72.1084;944.0543;;;;
2020/04/11 04:39:00;;;;;;;15.2;13.6;;;;;;;7.03;72.74121;944.0876;;;;
2020/04/11 04:41:25;;;;;;;17;12.8;;;;;;;7.06;72.70117;944.0815;;;;
2020/04/11 04:43:50;;;;;;;16.2;12.8;;;;;;;7.07;72.46387;944.0311;;;;
2020/04/11 04:46:15;;;;;;;16.8;12.9;;;;;;;7.06;72.41797;944.0278;;;;
2020/04/11 04:48:40;;;;;;;16.4;12.6;;;;;;;7.04;72.59473;944.0636;;;;
2020/04/11 04:51:05;;;;;;;15.2;11.2;;;;;;;7.03;72.76367;944.0513;;;;
2020/04/11 04:53:31;;;;;;;17.4;11.3;;;;;;;7.02;72.88672;944.0923;;;;
2020/04/11 04:55:56;;;;;;;35.1;13.9;;;;;;;6.89;73.4541;944.068;;;;
2020/04/11 04:58:21;;;;;;;13.2;11.8;;;;;;;6.83;73.79492;944.1191;;;;
2020/04/11 05:00:47;;;;;;;13.2;11.5;;;;;;;6.97;73.20703;944.1181;;;;
2020/04/11 05:03:14;;;;;;;12.9;11.5;;;;;;;7.06;72.89258;944.121;;;;
2020/04/11 05:05:39;;;;;;;12.9;11.5;;;;;;;7.22;72.2627;944.1606;;;;
2020/04/11 05:08:04;;;;;;;15.2;11.7;;;;;;;7.24;72.08496;944.1572;;;;
2020/04/11 05:10:29;;;;;;;15.3;12.3;;;;;;;7.16;72.5127;944.2383;;;;
2020/04/11 05:12:54;;;;;;;20.5;12.6;;;;;;;7.18;72.40234;944.2794;;;;
2020/04/11 05:15:19;;;;;;;21;12.4;;;;;;;7.11;72.5166;944.2756;;;;
2020/04/11 05:17:45;;;;;;;16.1;12;;;;;;;7.26;72.10059;944.2696;;;;
2020/04/11 05:20:10;;;;;;;16.3;11.6;;;;;;;7.4;71.4209;944.2724;;;;
2020/04/11 05:22:35;;;;;;;16.9;12;;;;;;;7.42;71.41406;944.2877;;;;
2020/04/11 05:25:00;;;;;;;17;12;;;;;;;7.57;71.00684;944.3444;;;;
2020/04/11 05:27:25;;;;;;;15.9;11.8;;;;;;;7.72;70.40723;944.3483;;;;
2020/04/11 05:29:50;;;;;;;15.9;11.3;;;;;;;7.9;69.65527;944.2986;;;;
2020/04/11 05:32:15;;;;;;;20;11.2;;;;;;;8.06;69.14648;944.327;;;;
2020/04/11 05:34:40;;;;;;;13.1;10.5;;;;;;;8.18;68.37207;944.2974;;;;
2020/04/11 05:37:06;;;;;;;15;10.6;;;;;;;8.28;68.12598;944.3622;;;;
2020/04/11 05:39:31;;;;;;;14.1;10.7;;;;;;;8.44;67.98145;944.3616;;;;
2020/04/11 05:41:57;;;;;;;16.6;10.4;;;;;;;9.2;66.22168;944.4065;;;;
2020/04/11 05:44:22;;;;;;;17.7;10.7;;;;;;;10.32;62.12598;944.4008;;;;
2020/04/11 05:46:48;;;;;;;14.9;9.5;;;;;;;11.23;58.4248;944.3027;;;;
2020/04/11 05:49:13;;;;;;;13.4;9.8;;;;;;;11.81;56.43164;944.3053;;;;
2020/04/11 05:51:42;;;;;;;12.3;9.2;;;;;;;12.17;55.31055;944.3061;;;;
2020/04/11 05:54:11;;;;;;;12.5;9.1;;;;;;;12.83;53.24707;944.3636;;;;
2020/04/11 05:56:37;;;;;;;10.5;7.6;;;;;;;13.35;51.67871;944.3406;;;;
2020/04/11 05:59:02;;;;;;;9;7.4;;;;;;;13.84;50.23047;944.3092;;;;
2020/04/11 06:01:27;;;;;;;8.4;7.2;;;;;;;14.12;49.37598;944.2991;;;;
2020/04/11 06:03:53;;;;;;;27.1;8.3;;;;;;;14.14;49.2627;944.3481;;;;
2020/04/11 06:06:18;;;;;;;10;6.5;;;;;;;14.11;49.16699;944.348;;;;
2020/04/11 06:08:43;;;;;;;10.2;7.2;;;;;;;14.64;48.02734;944.265;;;;
2020/04/11 06:11:08;;;;;;;11.9;8.4;;;;;;;13.91;49.12109;944.3072;;;;
2020/04/11 06:13:33;;;;;;;18.4;8.3;;;;;;;14.33;48.54688;944.3334;;;;
2020/04/11 06:15:59;;;;;;;36.4;9.9;;;;;;;14.07;48.90918;944.3477;;;;
2020/04/11 06:18:25;;;;;;;16.7;8.5;;;;;;;13.53;50.39063;944.2977;;;;
2020/04/11 06:20:50;;;;;;;21.9;9.3;;;;;;;13.71;50.21484;944.1904;;;;
2020/04/11 06:23:15;;;;;;;11.5;7.7;;;;;;;14.39;48.75;944.1878;;;;
2020/04/11 06:25:40;;;;;;;11.3;7.4;;;;;;;15.38;46.38867;944.2216;;;;
2020/04/11 06:28:05;;;;;;;13.4;7.1;;;;;;;16.35;43.25293;944.2043;;;;
2020/04/11 06:30:32;;;;;;;11;6.8;;;;;;;17.08;42.06152;944.1969;;;;
2020/04/11 06:32:57;;;;;;;9.3;6.6;;;;;;;17.08;42.10742;944.213;;;;
2020/04/11 06:35:23;;;;;;;9.6;6.2;;;;;;;17.28;40.9668;944.1822;;;;
2020/04/11 06:37:49;;;;;;;12.2;6;;;;;;;16.31;42.70508;944.0904;;;;
2020/04/11 06:40:14;;;;;;;15;6.4;;;;;;;16.93;40.67969;944.0953;;;;
2020/04/11 06:42:39;;;;;;;9.7;6.1;;;;;;;17.23;40.02344;944.1567;;;;
2020/04/11 06:45:04;;;;;;;6.9;5.1;;;;;;;18.19;38.07813;944.0831;;;;
2020/04/11 06:47:29;;;;;;;8.7;5.4;;;;;;;18.38;37.9082;944.0982;;;;
2020/04/11 06:49:55;;;;;;;11.6;5.6;;;;;;;18.08;38.0791;944.123;;;;
2020/04/11 06:52:20;;;;;;;6.2;5.2;;;;;;;17.95;38.28906;944.1417;;;;
2020/04/11 06:54:45;;;;;;;9.9;5.6;;;;;;;17.1;40.26758;944.1203;;;;
2020/04/11 06:57:10;;;;;;;6.7;5.7;;;;;;;17.42;40.13281;944.1031;;;;
2020/04/11 06:59:35;;;;;;;8;5.3;;;;;;;18.18;39.37695;944.0864;;;;
2020/04/11 07:02:00;;;;;;;8.3;5.3;;;;;;;18.4;37.20117;944.0633;;;;
2020/04/11 07:04:26;;;;;;;9.7;5;;;;;;;18.73;36.69336;944.0126;;;;
2020/04/11 07:06:51;;;;;;;7.5;4.9;;;;;;;18.34;36.8584;944.0317;;;;
2020/04/11 07:09:16;;;;;;;7.3;5.2;;;;;;;18.34;37.06836;944.0576;;;;
2020/04/11 07:11:41;;;;;;;7.4;5.2;;;;;;;18.42;36.85352;944.0422;;;;
2020/04/11 07:14:06;;;;;;;7.3;5.2;;;;;;;18.73;36.27441;944.0781;;;;
2020/04/11 07:16:31;;;;;;;6.9;5.5;;;;;;;19;37.14648;944.0408;;;;
2020/04/11 07:18:56;;;;;;;10;5.7;;;;;;;18.68;36.42188;944.0028;;;;
2020/04/11 07:21:21;;;;;;;7.2;5.6;;;;;;;18.68;38.08496;944.0545;;;;
2020/04/11 07:23:47;;;;;;;6.6;5.7;;;;;;;18.68;37.38672;944.052;;;;
2020/04/11 07:26:12;;;;;;;7.7;6.1;;;;;;;18.78;37.44238;944.033;;;;
2020/04/11 07:28:37;;;;;;;8.4;5.6;;;;;;;20.18;36.0791;944.0094;;;;
2020/04/11 07:31:02;;;;;;;9.1;6.1;;;;;;;20.71;34.73145;943.9436;;;;
2020/04/11 07:33:27;;;;;;;7.2;5.5;;;;;;;21.29;34.82324;943.9266;;;;
2020/04/11 07:35:52;;;;;;;8.1;5.5;;;;;;;21.74;31.33301;943.9815;;;;
2020/04/11 07:38:18;;;;;;;6.3;5.3;;;;;;;22.13;32.41602;943.9627;;;;
2020/04/11 07:40:55;;;;;;;6.8;4.8;;;;;;;23.8;28.13672;943.9026;;;;
2020/04/11 07:43:19;;;;;;;6.4;4.6;;;;;;;25.36;27.41992;943.892;;;;
2020/04/11 07:45:49;;;;;;;7.7;4.8;;;;;;;26.37;24.27539;943.9;;;;
2020/04/11 07:48:08;;;;;;;8.5;4.6;;;;;;;27.37;24.16309;943.8381;;;;
2020/04/11 07:50:34;;;;;;;5.5;4.2;;;;;;;27.8;23.24805;943.8555;;;;
2020/04/11 07:52:59;;;;;;;6.3;3.7;;;;;;;29.31;21.58594;943.8214;;;;
2020/04/11 07:55:24;;;;;;;8;3.7;;;;;;;30.45;20.39941;943.8422;;;;
2020/04/11 07:57:49;;;;;;;5;3.6;;;;;;;29.88;20.96973;943.8663;;;;
2020/04/11 08:00:15;;;;;;;6.7;3.5;;;;;;;30.4;21.06543;943.8407;;;;
2020/04/11 08:02:39;;;;;;;5.2;3.3;;;;;;;31.21;20.01465;943.842;;;;
2020/04/11 08:05:04;;;;;;;5.1;3.1;;;;;;;32.42;18.78418;943.8207;;;;
2020/04/11 08:07:30;;;;;;;6.5;3.2;;;;;;;33.21;18.13184;943.7916;;;;
2020/04/11 08:09:55;;;;;;;6.2;3.4;;;;;;;33.35;17.46484;943.7917;;;;
2020/04/11 08:12:20;;;;;;;4.7;3.3;;;;;;;34.06;17.08203;943.8074;;;;
2020/04/11 08:14:45;;;;;;;5;3.3;;;;;;;32.76;18.42676;943.7896;;;;
2020/04/11 08:17:13;;;;;;;6.1;3.5;;;;;;;32.68;18.42285;943.7875;;;;
2020/04/11 08:19:36;;;;;;;5.9;3.6;;;;;;;30.37;22.1748;943.7925;;;;
2020/04/11 08:22:02;;;;;;;10;4.3;;;;;;;32.14;20.57129;943.8219;;;;
2020/04/11 08:24:27;;;;;;;10.1;4;;;;;;;33.43;18.52539;943.8269;;;;
2020/04/11 08:26:54;;;;;;;7;3.5;;;;;;;33.18;17.89063;943.7951;;;;
2020/04/11 08:29:17;;;;;;;7.1;3.8;;;;;;;33.18;18.78027;943.7908;;;;
2020/04/11 08:31:42;;;;;;;6.2;3.7;;;;;;;33.46;18.14258;943.7553;;;;
2020/04/11 08:34:07;;;;;;;8.8;4.5;;;;;;;33.33;19.42285;943.7391;;;;
2020/04/11 08:36:33;;;;;;;7.1;3.7;;;;;;;33.68;18.5;943.7834;;;;
2020/04/11 08:38:59;;;;;;;6.5;3.8;;;;;;;34.03;18.68262;943.7498;;;;
2020/04/11 08:41:25;;;;;;;6.3;3.5;;;;;;;34.41;17.97559;943.7864;;;;
2020/04/11 08:43:50;;;;;;;8.2;4.2;;;;;;;33.83;18.68555;943.7317;;;;
2020/04/11 08:46:16;;;;;;;7.3;3.8;;;;;;;33.51;18.60059;943.752;;;;
2020/04/11 08:48:41;;;;;;;5.7;3.5;;;;;;;34.11;18.15625;943.7275;;;;
2020/04/11 08:51:08;;;;;;;8.1;4.1;;;;;;;33.65;18.22168;943.7441;;;;
2020/04/11 08:53:33;;;;;;;7.4;3.6;;;;;;;33.84;18.09668;943.7517;;;;
2020/04/11 08:55:59;;;;;;;5.7;3.7;;;;;;;33.7;17.27344;943.742;;;;
2020/04/11 08:58:24;;;;;;;7;5.1;;;;;;;32.42;18.65234;943.7731;;;;
2020/04/11 09:00:50;;;;;;;6.9;5;;;;;;;32.51;17.95996;943.7941;;;;
2020/04/11 09:03:15;;;;;;;7.1;5.4;;;;;;;31.53;19.25;943.7813;;;;
2020/04/11 09:05:41;;;;;;;7.2;5.1;;;;;;;30.38;20.07324;943.7581;;;;
2020/04/11 09:08:06;;;;;;;5.7;4.8;;;;;;;30.23;21.24902;943.7198;;;;
2020/04/11 09:10:32;;;;;;;5.8;4.8;;;;;;;28.76;22.27441;943.6987;;;;
2020/04/11 09:12:57;;;;;;;7.4;4.5;;;;;;;28.63;22.31543;943.6832;;;;
2020/04/11 09:15:24;;;;;;;7.7;5;;;;;;;28.72;22.7002;943.6878;;;;
2020/04/11 09:17:49;;;;;;;10.1;5;;;;;;;28.47;23.15137;943.6619;;;;
2020/04/11 09:20:15;;;;;;;12.4;5.8;;;;;;;27.95;24.44336;943.657;;;;
2020/04/11 09:22:40;;;;;;;8.8;6.2;;;;;;;27.39;25.19629;943.668;;;;
2020/04/11 09:25:06;;;;;;;13.4;6.5;;;;;;;26.77;26.44043;943.6831;;;;
2020/04/11 09:27:31;;;;;;;9.5;5.6;;;;;;;27.33;25.15723;943.729;;;;
2020/04/11 09:29:58;;;;;;;8.6;6.2;;;;;;;27.52;24.97754;943.7381;;;;
2020/04/11 09:32:23;;;;;;;10.1;6.7;;;;;;;27.52;24.23047;943.7381;;;;
2020/04/11 09:34:49;;;;;;;8.4;6.5;;;;;;;28.55;23.66797;943.6904;;;;
2020/04/11 09:37:14;;;;;;;10.6;6.5;;;;;;;28.3;23.79688;943.6898;;;;
2020/04/11 09:39:40;;;;;;;12.3;6.5;;;;;;;28.46;22.27148;943.6805;;;;
2020/04/11 09:42:05;;;;;;;13.2;7;;;;;;;28.21;22.94824;943.6145;;;;
2020/04/11 09:44:43;;;;;;;10.6;7.1;;;;;;;27.72;23.58789;943.6291;;;;
2020/04/11 09:47:03;;;;;;;8.2;6.4;;;;;;;28.48;22.50977;943.6066;;;;
2020/04/11 09:49:30;;;;;;;13.6;6.6;;;;;;;28.03;24.56641;943.6274;;;;
2020/04/11 09:51:54;;;;;;;9.2;6.8;;;;;;;27.85;22.94141;943.6267;;;;
2020/04/11 09:54:25;;;;;;;9.5;6.7;;;;;;;27.94;23.95508;943.587;;;;
2020/04/11 09:56:51;;;;;;;11.6;7.4;;;;;;;27.26;24.50098;943.5659;;;;
2020/04/11 09:59:16;;;;;;;10.6;7.3;;;;;;;27.57;23.95996;943.5613;;;;
2020/04/11 10:01:42;;;;;;;12;7.7;;;;;;;28.13;23.20508;943.5229;;;;
2020/04/11 10:04:07;;;;;;;11.1;7.2;;;;;;;28.57;22.51465;943.5139;;;;
2020/04/11 10:06:34;;;;;;;9.7;6.9;;;;;;;28.28;23.83203;943.5172;;;;
2020/04/11 10:08:59;;;;;;;9.2;7.1;;;;;;;28.47;23.76953;943.4736;;;;
2020/04/11 10:11:25;;;;;;;10.3;7.3;;;;;;;28.08;23.9043;943.4092;;;;
2020/04/11 10:13:50;;;;;;;11.4;7;;;;;;;27.56;25.87012;943.4819;;;;
2020/04/11 10:16:15;;;;;;;9.9;8.1;;;;;;;27.6;25.56348;943.4897;;;;
2020/04/11 10:18:40;;;;;;;11.5;7.5;;;;;;;27.68;25.58008;943.4103;;;;
2020/04/11 10:21:07;;;;;;;9.1;7.2;;;;;;;28.21;23.76855;943.3911;;;;
2020/04/11 10:23:32;;;;;;;11.1;7.5;;;;;;;27.76;24.94336;943.3359;;;;
2020/04/11 10:25:58;;;;;;;19;7.8;;;;;;;27.58;24.93359;943.3694;;;;
2020/04/11 10:28:23;;;;;;;9.3;7.6;;;;;;;28;24.5293;943.2598;;;;
2020/04/11 10:30:50;;;;;;;8.7;7.4;;;;;;;27.81;24.28125;943.1962;;;;
2020/04/11 10:33:15;;;;;;;11.7;7.8;;;;;;;28.06;23.33301;943.2439;;;;
2020/04/11 10:35:41;;;;;;;15.8;8;;;;;;;27.65;23.91699;943.1713;;;;
2020/04/11 10:38:06;;;;;;;12.2;7.3;;;;;;;27.66;24.64063;943.1439;;;;
2020/04/11 10:40:33;;;;;;;10.3;7.2;;;;;;;27.32;25.06152;943.1256;;;;
2020/04/11 10:42:58;;;;;;;11;7.3;;;;;;;27.26;24.52441;943.0764;;;;
2020/04/11 10:45:24;;;;;;;9.3;6.9;;;;;;;27.87;23.03809;943.0989;;;;
2020/04/11 10:47:49;;;;;;;11.7;7.1;;;;;;;28.64;22.44727;943.0508;;;;
2020/04/11 10:50:14;;;;;;;10.4;7;;;;;;;28.63;22.125;943.0341;;;;
2020/04/11 10:52:39;;;;;;;10.6;7;;;;;;;28.95;22.05762;943.0186;;;;
2020/04/11 10:55:05;;;;;;;7.5;6.2;;;;;;;29.03;21.09668;943.038;;;;
2020/04/11 10:57:30;;;;;;;8;6.6;;;;;;;29.31;22.00293;943.0074;;;;
2020/04/11 10:59:56;;;;;;;7.5;6.6;;;;;;;29.38;21.70898;942.9778;;;;
2020/04/11 11:02:21;;;;;;;11.2;6.2;;;;;;;28.69;22.54492;942.8809;;;;
2020/04/11 11:04:48;;;;;;;7.8;6.3;;;;;;;27.75;23.29297;942.9132;;;;
2020/04/11 11:07:13;;;;;;;7.4;6.4;;;;;;;27.66;24.08398;942.8539;;;;
2020/04/11 11:09:39;;;;;;;14.2;6.7;;;;;;;27.32;24.10059;942.8395;;;;
2020/04/11 11:12:04;;;;;;;8.5;6.3;;;;;;;27.57;24.2334;942.8788;;;;
2020/04/11 11:14:30;;;;;;;12.3;6;;;;;;;27.09;24.59863;942.8689;;;;
2020/04/11 11:16:54;;;;;;;9.1;5.8;;;;;;;27.07;25.1543;942.8619;;;;
2020/04/11 11:19:19;;;;;;;8.3;5.8;;;;;;;27.4;25.70703;942.7699;;;;
2020/04/11 11:21:45;;;;;;;6.7;5.7;;;;;;;26.89;26.11523;942.7642;;;;
2020/04/11 11:24:10;;;;;;;8;5.5;;;;;;;27.4;24.24707;942.7561;;;;
2020/04/11 11:26:35;;;;;;;8.3;5.4;;;;;;;27.21;25.18555;942.7367;;;;
2020/04/11 11:29:00;;;;;;;9.6;5.2;;;;;;;28.06;23.98633;942.6897;;;;
2020/04/11 11:31:26;;;;;;;8.2;5.5;;;;;;;28.24;24.58984;942.5622;;;;
2020/04/11 11:33:51;;;;;;;9;5.1;;;;;;;28.11;23.94043;942.5394;;;;
2020/04/11 11:36:16;;;;;;;5.8;4.8;;;;;;;28.32;24.7373;942.5337;;;;
2020/04/11 11:38:41;;;;;;;9.4;5.1;;;;;;;28.68;22.81738;942.5899;;;;
2020/04/11 11:41:06;;;;;;;7.1;4.4;;;;;;;29.3;23.1709;942.568;;;;
2020/04/11 11:43:31;;;;;;;6.9;4.3;;;;;;;29.11;23.73145;942.5739;;;;
2020/04/11 11:45:56;;;;;;;13.7;4.6;;;;;;;29.25;23.1084;942.5481;;;;
2020/04/11 11:48:23;;;;;;;8.5;4.6;;;;;;;28.74;23.87891;942.4482;;;;
2020/04/11 11:50:48;;;;;;;8.6;4.8;;;;;;;27.67;24.71289;942.4272;;;;
2020/04/11 11:53:14;;;;;;;5.8;4.2;;;;;;;27.1;25.35742;942.39;;;;
2020/04/11 11:55:38;;;;;;;7.1;4.1;;;;;;;27.61;24.54297;942.3962;;;;
2020/04/11 11:58:03;;;;;;;4.7;4.2;;;;;;;27.62;24.49707;942.3732;;;;
2020/04/11 12:00:28;;;;;;;10.3;4.7;;;;;;;26.93;26.10645;942.3477;;;;
2020/04/11 12:02:53;;;;;;;6.2;4.2;;;;;;;27.59;23.81836;942.2808;;;;
2020/04/11 12:05:19;;;;;;;8.5;4.3;;;;;;;27.48;24.86816;942.302;;;;
2020/04/11 12:07:44;;;;;;;9.9;3.9;;;;;;;27.09;25.44043;942.2805;;;;
2020/04/11 12:10:10;;;;;;;5.6;3.8;;;;;;;27.09;25.70117;942.2403;;;;
2020/04/11 12:12:35;;;;;;;6.6;4.1;;;;;;;26.82;24.42969;942.2269;;;;
2020/04/11 12:15:00;;;;;;;5.3;3.8;;;;;;;26.77;25.25586;942.1769;;;;
2020/04/11 12:17:25;;;;;;;4.3;3.4;;;;;;;27.56;25.87012;942.2198;;;;
2020/04/11 12:19:51;;;;;;;9;3.6;;;;;;;27.09;24.66992;942.2053;;;;
2020/04/11 12:22:16;;;;;;;12.3;4.1;;;;;;;26.71;25.03906;942.1856;;;;
2020/04/11 12:24:41;;;;;;;9;3.8;;;;;;;27.07;25.73535;942.2037;;;;
2020/04/11 12:27:06;;;;;;;6.1;3.7;;;;;;;27.35;25.46582;942.2279;;;;
2020/04/11 12:29:32;;;;;;;7;3.7;;;;;;;27.4;24.30664;942.187;;;;
2020/04/11 12:31:57;;;;;;;6.6;3.8;;;;;;;27.6;22.95313;942.1443;;;;
2020/04/11 12:34:22;;;;;;;8;4;;;;;;;26.71;25.64355;942.0287;;;;
2020/04/11 12:36:48;;;;;;;9;3.9;;;;;;;26.4;26.00391;942.0842;;;;
2020/04/11 12:39:15;;;;;;;7.5;3.8;;;;;;;26.71;26.70898;942.0608;;;;
2020/04/11 12:41:42;;;;;;;6.8;3.7;;;;;;;27.02;25.3291;942.0757;;;;
2020/04/11 12:44:07;;;;;;;6.3;3.5;;;;;;;26.51;24.8623;942.072;;;;
2020/04/11 12:46:32;;;;;;;4.8;3.1;;;;;;;27.38;24.51953;942.0101;;;;
2020/04/11 12:48:57;;;;;;;6.2;3.8;;;;;;;27.4;23.61914;941.9813;;;;
2020/04/11 12:51:23;;;;;;;9.1;4.1;;;;;;;27.43;24.62891;942.0389;;;;
2020/04/11 12:53:48;;;;;;;6;3.6;;;;;;;27.12;24.55176;942.005;;;;
2020/04/11 12:56:13;;;;;;;6.4;3.8;;;;;;;26.49;26.03418;941.9666;;;;
2020/04/11 12:58:39;;;;;;;4.5;3.6;;;;;;;26.15;26.46289;941.9163;;;;
2020/04/11 13:01:04;;;;;;;7.2;3.8;;;;;;;26.31;25.67871;941.8423;;;;
2020/04/11 13:03:29;;;;;;;6.5;3.8;;;;;;;26.31;25.7627;941.9133;;;;
2020/04/11 13:05:55;;;;;;;6.2;3.7;;;;;;;26.91;24.19727;941.8103;;;;
2020/04/11 13:08:20;;;;;;;4.4;3.6;;;;;;;26.73;25.39551;941.8095;;;;
2020/04/11 13:10:45;;;;;;;4.5;3.8;;;;;;;26.28;25.32227;941.847;;;;
2020/04/11 13:13:10;;;;;;;6.9;4.1;;;;;;;26.43;25.10645;941.7881;;;;
2020/04/11 13:15:35;;;;;;;8.9;4.1;;;;;;;26.6;24.72559;941.7581;;;;
2020/04/11 13:18:03;;;;;;;7.3;4;;;;;;;25.58;26.26367;941.7307;;;;
2020/04/11 13:20:29;;;;;;;4.7;3.5;;;;;;;25.48;26.34082;941.7772;;;;
2020/04/11 13:22:54;;;;;;;6.1;3.8;;;;;;;25.67;26.44629;941.7115;;;;
2020/04/11 13:25:19;;;;;;;6.7;3.9;;;;;;;25.31;27.32227;941.7597;;;;
2020/04/11 13:27:44;;;;;;;7;3.6;;;;;;;25.4;27.88379;941.798;;;;
2020/04/11 13:30:09;;;;;;;15.5;4;;;;;;;25.32;27.31152;941.6547;;;;
2020/04/11 13:32:35;;;;;;;5.2;3.4;;;;;;;25.44;26.25586;941.7267;;;;
2020/04/11 13:35:01;;;;;;;7;3.5;;;;;;;24.99;27.58594;941.7427;;;;
2020/04/11 13:37:26;;;;;;;9.8;4;;;;;;;24.72;28.80762;941.6132;;;;
2020/04/11 13:39:52;;;;;;;6.3;3.6;;;;;;;24.37;29.23242;941.7125;;;;
2020/04/11 13:42:18;;;;;;;8.2;3.8;;;;;;;24.12;29.25195;941.6139;;;;
2020/04/11 13:44:43;;;;;;;5.2;3.7;;;;;;;24.2;28.31445;941.6355;;;;
2020/04/11 13:47:08;;;;;;;4.7;3.7;;;;;;;24.25;29.7666;941.625;;;;
2020/04/11 13:49:33;;;;;;;15.3;3.8;;;;;;;24.32;28.76953;941.6462;;;;
2020/04/11 13:51:58;;;;;;;7.7;3.7;;;;;;;24.24;28.98926;941.6268;;;;
2020/04/11 13:54:23;;;;;;;10;3.7;;;;;;;24.22;28.0332;941.5631;;;;
2020/04/11 13:56:48;;;;;;;13.6;4;;;;;;;24.33;28.95996;941.5798;;;;
2020/04/11 13:59:14;;;;;;;4.7;3.6;;;;;;;24.24;27.94043;941.4871;;;;
2020/04/11 14:01:39;;;;;;;5;3.5;;;;;;;24.69;27.28516;941.5262;;;;
2020/04/11 14:04:04;;;;;;;8.4;3.8;;;;;;;24.66;27.91992;941.5008;;;;
2020/04/11 14:06:29;;;;;;;6.4;3.6;;;;;;;24.78;27.45508;941.4944;;;;
2020/04/11 14:08:54;;;;;;;7.2;3.5;;;;;;;24.92;27.19238;941.4344;;;;
2020/04/11 14:11:19;;;;;;;6;3.3;;;;;;;24.85;27.84863;941.4778;;;;
2020/04/11 14:13:44;;;;;;;6.8;3.3;;;;;;;24.72;27.29883;941.4012;;;;
2020/04/11 14:16:09;;;;;;;4.8;3.3;;;;;;;24.58;27.79688;941.4155;;;;